createdAt,value
2022-10-14T00:01:15.344Z,68297.53
2022-10-14T00:03:43.727Z,68302.06
2022-10-14T00:06:17.731Z,68302.81
2022-10-14T00:08:45.383Z,68313.75
2022-10-14T00:11:18.724Z,68309.44
2022-10-14T00:13:46.517Z,68319.06
2022-10-14T00:16:26.300Z,68316.78
2022-10-14T00:18:53.525Z,68316.22
2022-10-14T00:21:20.875Z,68313.59
2022-10-14T00:23:48.356Z,68307.91
2022-10-14T00:26:22.230Z,68317.94
2022-10-14T00:28:50.890Z,68312.81
2022-10-14T00:31:19.165Z,68319.25
2022-10-14T00:33:48.191Z,68320.97
2022-10-14T00:36:18.119Z,68317.16
2022-10-14T00:38:45.847Z,68314.16
2022-10-14T00:41:21.016Z,68313.59
2022-10-14T00:44:13.222Z,68319.06
2022-10-14T00:46:43.167Z,68315.66
2022-10-14T00:49:14.476Z,68301.13
2022-10-14T00:51:46.704Z,68302.81
2022-10-14T00:54:17.301Z,68303.78
2022-10-14T00:56:45.888Z,68300.53
2022-10-14T00:59:13.287Z,68299.81
2022-10-14T01:01:40.660Z,68306.78
2022-10-14T01:04:07.991Z,68313.22
2022-10-14T01:06:53.952Z,68314.53
2022-10-14T01:09:29.182Z,68305.66
2022-10-14T01:12:27.607Z,68307.16
2022-10-14T01:15:38.691Z,68315.09
2022-10-14T01:18:12.295Z,68305.44
2022-10-14T01:20:53.800Z,68297.53
2022-10-14T01:23:39.670Z,68300.00
2022-10-14T01:26:20.534Z,68295.25
2022-10-14T01:29:15.387Z,68294.13
2022-10-14T01:31:50.521Z,68307.75
2022-10-14T01:34:27.486Z,68312.81
2022-10-14T01:37:01.421Z,68308.69
2022-10-14T01:39:35.996Z,68317.94
2022-10-14T01:42:11.545Z,68315.84
2022-10-14T01:44:43.596Z,68310.19
2022-10-14T01:47:16.220Z,68312.44
2022-10-14T01:49:49.733Z,68305.84
2022-10-14T01:52:23.213Z,68314.34
2022-10-14T01:54:54.899Z,68315.09
2022-10-14T01:57:26.131Z,68304.34
2022-10-14T01:59:55.735Z,68308.84
2022-10-14T02:02:24.834Z,68310.00
2022-10-14T02:04:52.566Z,68317.94
2022-10-14T02:07:50.565Z,68310.38
2022-10-14T02:10:34.176Z,68322.09
2022-10-14T02:13:20.244Z,68329.09
2022-10-14T02:16:23.901Z,68341.19
2022-10-14T02:19:36.306Z,68334.97
2022-10-14T02:22:15.771Z,68324.00
2022-10-14T02:24:51.562Z,68324.56
2022-10-14T02:27:21.955Z,68321.53
2022-10-14T02:29:50.840Z,68324.38
2022-10-14T02:32:22.965Z,68315.84
2022-10-14T02:34:53.429Z,68314.53
2022-10-14T02:37:22.379Z,68306.78
2022-10-14T02:39:58.174Z,68316.06
2022-10-14T02:42:28.128Z,68315.09
2022-10-14T02:44:59.282Z,68312.09
2022-10-14T02:47:27.349Z,68320.00
2022-10-14T02:49:54.594Z,68325.31
2022-10-14T02:52:21.930Z,68314.16
2022-10-14T02:54:49.538Z,68319.06
2022-10-14T02:57:17.051Z,68314.53
2022-10-14T02:59:44.350Z,68316.44
2022-10-14T03:02:11.729Z,68318.13
2022-10-14T03:04:41.513Z,68317.94
2022-10-14T03:07:09.468Z,68301.69
2022-10-14T03:09:42.363Z,68321.34
2022-10-14T03:12:10.619Z,68324.56
2022-10-14T03:14:38.537Z,68330.22
2022-10-14T03:17:08.698Z,68341.19
2022-10-14T03:19:36.221Z,68339.31
2022-10-14T03:22:03.651Z,68328.53
2022-10-14T03:24:31.686Z,68343.47
2022-10-14T03:27:17.703Z,68353.09
2022-10-14T03:29:48.627Z,68351.97
2022-10-14T03:32:20.972Z,68355.56
2022-10-14T03:35:08.725Z,68350.44
2022-10-14T03:37:36.400Z,68340.81
2022-10-14T03:40:05.279Z,68328.53
2022-10-14T03:42:34.831Z,68333.81
2022-10-14T03:45:02.230Z,68321.34
2022-10-14T03:47:31.336Z,68327.78
2022-10-14T03:50:00.909Z,68324.16
2022-10-14T03:52:44.860Z,68326.81
2022-10-14T03:55:22.925Z,68329.47
2022-10-14T03:57:52.045Z,68332.88
2022-10-14T04:00:20.408Z,68343.06
2022-10-14T04:02:55.886Z,68343.28
2022-10-14T04:05:34.032Z,68339.50
2022-10-14T04:08:08.475Z,68342.53
2022-10-14T04:10:37.148Z,68344.41
2022-10-14T04:13:04.444Z,68346.88
2022-10-14T04:15:36.994Z,68350.44
2022-10-14T04:18:10.858Z,68342.69
2022-10-14T04:20:40.163Z,68335.69
2022-10-14T04:23:09.180Z,68330.63
2022-10-14T04:25:39.435Z,68329.69
2022-10-14T04:28:07.777Z,68330.63
2022-10-14T04:30:45.949Z,68325.47
2022-10-14T04:33:19.216Z,68339.31
2022-10-14T04:35:49.147Z,68336.28
2022-10-14T04:38:24.829Z,68332.31
2022-10-14T04:40:58.455Z,68328.53
2022-10-14T04:43:26.758Z,68304.56
2022-10-14T04:45:54.606Z,68325.72
2022-10-14T04:48:26.503Z,68321.72
2022-10-14T04:50:56.003Z,68320.41
2022-10-14T04:53:55.559Z,68321.91
2022-10-14T04:56:34.264Z,68324.16
2022-10-14T04:59:04.613Z,68320.56
2022-10-14T05:01:50.922Z,68332.31
2022-10-14T05:04:18.612Z,68318.13
2022-10-14T05:06:48.263Z,68309.44
2022-10-14T05:09:18.328Z,68301.31
2022-10-14T05:11:45.903Z,68327.78
2022-10-14T05:14:18.073Z,68322.66
2022-10-14T05:16:48.674Z,68317.00
2022-10-14T05:19:23.207Z,68314.91
2022-10-14T05:21:51.993Z,68326.03
2022-10-14T05:24:26.124Z,68340.25
2022-10-14T05:26:53.676Z,68334.59
2022-10-14T05:29:21.089Z,68323.06
2022-10-14T05:31:51.295Z,68338.72
2022-10-14T05:34:34.959Z,68320.56
2022-10-14T05:37:04.338Z,68323.78
2022-10-14T05:39:38.267Z,68312.44
2022-10-14T05:42:05.964Z,68310.56
2022-10-14T05:44:35.206Z,68309.06
2022-10-14T05:47:03.973Z,68309.06
2022-10-14T05:49:31.456Z,68305.66
2022-10-14T05:52:01.942Z,68310.19
2022-10-14T05:54:31.486Z,68316.78
2022-10-14T05:56:58.998Z,68310.19
2022-10-14T05:59:27.551Z,68302.81
2022-10-14T06:01:55.222Z,68305.66
2022-10-14T06:04:22.926Z,68310.94
2022-10-14T06:06:50.253Z,68309.06
2022-10-14T06:09:17.830Z,68324.94
2022-10-14T06:11:45.391Z,68324.00
2022-10-14T06:14:12.788Z,68326.81
2022-10-14T06:16:40.810Z,68330.41
2022-10-14T06:19:08.418Z,68325.47
2022-10-14T06:21:35.822Z,68312.81
2022-10-14T06:24:03.185Z,68317.75
2022-10-14T06:26:30.599Z,68317.00
2022-10-14T06:28:58.007Z,68317.56
2022-10-14T06:31:29.840Z,68325.31
2022-10-14T06:34:00.108Z,68334.38
2022-10-14T06:36:27.316Z,68324.94
2022-10-14T06:38:54.591Z,68332.31
2022-10-14T06:41:21.944Z,68342.53
2022-10-14T06:43:49.242Z,68342.34
2022-10-14T06:46:16.924Z,68338.56
2022-10-14T06:48:48.105Z,68335.91
2022-10-14T06:51:18.051Z,68334.38
2022-10-14T06:53:45.336Z,68328.13
2022-10-14T06:56:12.796Z,68325.47
2022-10-14T06:58:40.082Z,68332.31
2022-10-14T07:01:08.826Z,68347.44
2022-10-14T07:03:38.741Z,68340.63
2022-10-14T07:06:07.383Z,68348.94
2022-10-14T07:08:34.784Z,68356.88
2022-10-14T07:11:02.180Z,68349.31
2022-10-14T07:13:29.622Z,68358.75
2022-10-14T07:15:56.878Z,68353.28
2022-10-14T07:18:24.094Z,68351.78
2022-10-14T07:20:51.538Z,68353.47
2022-10-14T07:23:19.058Z,68353.28
2022-10-14T07:25:46.415Z,68356.88
2022-10-14T07:28:13.738Z,68356.69
2022-10-14T07:30:41.335Z,68368.97
2022-10-14T07:33:08.557Z,68381.44
2022-10-14T07:35:39.194Z,68390.91
2022-10-14T07:38:06.881Z,68394.28
2022-10-14T07:40:34.136Z,68403.19
2022-10-14T07:43:01.360Z,68408.84
2022-10-14T07:45:35.126Z,68415.09
2022-10-14T07:48:02.520Z,68421.72
2022-10-14T07:50:29.855Z,68433.03
2022-10-14T07:53:01.057Z,68434.56
2022-10-14T07:55:28.735Z,68446.47
2022-10-14T07:57:56.001Z,68448.94
2022-10-14T08:00:23.561Z,68453.47
2022-10-14T08:02:50.921Z,68453.09
2022-10-14T08:05:37.049Z,68454.97
2022-10-14T08:08:05.630Z,68467.84
2022-10-14T08:10:34.032Z,68482.59
2022-10-14T08:13:01.469Z,68491.28
2022-10-14T08:15:31.089Z,68492.25
2022-10-14T08:17:58.326Z,68500.19
2022-10-14T08:20:26.070Z,68482.00
2022-10-14T08:22:53.336Z,68503.22
2022-10-14T08:25:20.669Z,68531.06
2022-10-14T08:27:50.559Z,68522.91
2022-10-14T08:30:18.272Z,68530.28
2022-10-14T08:32:45.516Z,68540.69
2022-10-14T08:35:13.231Z,68542.41
2022-10-14T08:37:40.541Z,68535.78
2022-10-14T08:40:08.810Z,68539.00
2022-10-14T08:42:56.120Z,68531.06
2022-10-14T08:45:44.543Z,68539.38
2022-10-14T08:48:18.500Z,68543.53
2022-10-14T08:50:54.820Z,68543.34
2022-10-14T08:53:28.415Z,68541.09
2022-10-14T08:56:00.531Z,68553.56
2022-10-14T08:58:38.689Z,68527.97
2022-10-14T09:01:44.293Z,68554.88
2022-10-14T09:04:15.084Z,68563.22
2022-10-14T09:06:45.375Z,68573.63
2022-10-14T09:09:32.872Z,68591.22
2022-10-14T09:12:05.101Z,68601.06
2022-10-14T09:14:37.357Z,68609.22
2022-10-14T09:17:22.183Z,68631.91
2022-10-14T09:20:02.179Z,68648.00
2022-10-14T09:22:29.461Z,68651.44
2022-10-14T09:24:58.848Z,68656.19
2022-10-14T09:27:28.827Z,68664.53
2022-10-14T09:30:09.269Z,68672.84
2022-10-14T09:32:41.539Z,68674.56
2022-10-14T09:35:41.673Z,68664.53
2022-10-14T09:38:11.589Z,68670.00
2022-10-14T09:40:44.866Z,68682.16
2022-10-14T09:43:18.227Z,68661.44
2022-10-14T09:46:01.979Z,68669.38
2022-10-14T09:48:32.432Z,68713.19
2022-10-14T09:51:07.541Z,68767.94
2022-10-14T09:53:41.178Z,68807.97
2022-10-14T09:56:12.942Z,68821.81
2022-10-14T09:58:57.457Z,68837.72
2022-10-14T10:02:00.537Z,68855.38
2022-10-14T10:04:30.862Z,68841.91
2022-10-14T10:07:03.076Z,68851.00
2022-10-14T10:09:30.290Z,68854.03
2022-10-14T10:11:57.694Z,68858.78
2022-10-14T10:14:33.812Z,68861.63
2022-10-14T10:17:10.170Z,68873.00
2022-10-14T10:19:46.231Z,68879.66
2022-10-14T10:25:00.725Z,68897.66
2022-10-14T10:27:35.050Z,68881.44
2022-10-14T10:30:20.455Z,68931.81
2022-10-14T10:33:15.389Z,68933.91
2022-10-14T10:35:45.475Z,68946.44
2022-10-14T10:38:57.064Z,68942.84
2022-10-14T10:41:27.386Z,68914.34
2022-10-14T10:44:02.300Z,68887.13
2022-10-14T10:46:57.524Z,68893.09
2022-10-14T10:50:00.701Z,68887.63
2022-10-14T10:52:52.909Z,68898.03
2022-10-14T10:55:26.129Z,68896.50
2022-10-14T10:58:19.959Z,68911.72
2022-10-14T11:01:31.333Z,68924.38
2022-10-14T11:04:19.030Z,68949.84
2022-10-14T11:07:27.067Z,68965.63
2022-10-14T11:10:49.783Z,68952.72
2022-10-14T11:13:51.163Z,68935.63
2022-10-14T11:16:36.248Z,68931.41
2022-10-14T11:19:14.871Z,68930.09
2022-10-14T11:21:59.336Z,68932.59
2022-10-14T11:24:54.819Z,68912.19
2022-10-14T11:27:44.133Z,68939.03
2022-10-14T11:30:19.305Z,68935.78
2022-10-14T11:33:22.697Z,68912.75
2022-10-14T11:36:14.728Z,68909.03
2022-10-14T11:38:53.932Z,68903.72
2022-10-14T11:41:47.546Z,68897.06
2022-10-14T11:44:19.065Z,68890.06
2022-10-14T11:47:05.279Z,68903.72
2022-10-14T11:49:55.800Z,68893.66
2022-10-14T11:52:30.282Z,68907.13
2022-10-14T11:55:14.554Z,68909.03
2022-10-14T11:57:47.165Z,68898.03
2022-10-14T12:00:34.918Z,68906.22
2022-10-14T12:03:05.350Z,68920.78
2022-10-14T12:05:44.914Z,68925.94
2022-10-14T12:08:46.328Z,68929.53
2022-10-14T12:11:28.588Z,68925.94
2022-10-14T12:14:16.716Z,68926.13
2022-10-14T12:16:47.617Z,68907.88
2022-10-14T12:19:23.827Z,68877.72
2022-10-14T12:22:14.182Z,68878.69
2022-10-14T12:24:46.538Z,68875.28
2022-10-14T12:27:15.403Z,68855.53
2022-10-14T12:29:50.019Z,68868.84
2022-10-14T12:32:19.684Z,68867.88
2022-10-14T12:34:53.886Z,68865.41
2022-10-14T12:37:27.260Z,68871.47
2022-10-14T12:40:07.267Z,68855.53
2022-10-14T12:42:44.133Z,68858.97
2022-10-14T12:45:21.139Z,68865.78
2022-10-14T12:48:20.702Z,68879.81
2022-10-14T12:50:49.807Z,68862.09
2022-10-14T12:53:21.778Z,68895.75
2022-10-14T12:56:04.349Z,68916.81
2022-10-14T12:58:33.397Z,68906.19
2022-10-14T13:01:06.598Z,68911.72
2022-10-14T13:03:44.241Z,68907.31
2022-10-14T13:06:42.385Z,68926.13
2022-10-14T13:09:12.723Z,68920.78
2022-10-14T13:11:44.933Z,68943.78
2022-10-14T13:14:27.424Z,68934.66
2022-10-14T13:16:57.054Z,68922.50
2022-10-14T13:19:33.247Z,68920.22
2022-10-14T13:22:02.127Z,68933.53
2022-10-14T13:24:41.941Z,68925.38
2022-10-14T13:27:39.842Z,68927.66
2022-10-14T13:30:10.295Z,68927.66
2022-10-14T13:32:59.483Z,68927.25
2022-10-14T13:35:53.793Z,68941.47
2022-10-14T13:38:23.974Z,68943.97
2022-10-14T13:40:57.395Z,68957.81
2022-10-14T13:43:34.303Z,68964.81
2022-10-14T13:46:27.950Z,68937.78
2022-10-14T13:48:59.278Z,68956.69
2022-10-14T13:51:45.543Z,68947.56
2022-10-14T13:54:16.977Z,68907.63
2022-10-14T13:56:44.698Z,68931.06
2022-10-14T13:59:43.531Z,68919.28
2022-10-14T14:02:21.385Z,68906.38
2022-10-14T14:04:53.465Z,68895.59
2022-10-14T14:07:58.906Z,68884.38
2022-10-14T14:10:12.448Z,68885.53
2022-10-14T14:12:42.516Z,68873.75
2022-10-14T14:15:27.045Z,68866.38
2022-10-14T14:17:54.839Z,68839.34
2022-10-14T14:20:23.091Z,68864.84
2022-10-14T14:22:51.073Z,68854.63
2022-10-14T14:25:34.186Z,68841.34
2022-10-14T14:28:07.829Z,68840.59
2022-10-14T14:30:37.660Z,68826.94
2022-10-14T14:33:11.097Z,68819.53
2022-10-14T14:35:38.520Z,68822.56
2022-10-14T14:38:24.609Z,68816.13
2022-10-14T14:41:02.066Z,68810.81
2022-10-14T14:43:34.742Z,68803.22
2022-10-14T14:46:04.000Z,68807.59
2022-10-14T14:48:36.614Z,68810.44
2022-10-14T14:51:04.349Z,68820.47
2022-10-14T14:53:32.043Z,68820.09
2022-10-14T14:56:24.872Z,68820.69
2022-10-14T14:58:59.242Z,68811.75
2022-10-14T15:01:29.129Z,68810.63
2022-10-14T15:04:13.757Z,68816.88
2022-10-14T15:07:01.468Z,68813.28
2022-10-14T15:09:50.940Z,68820.84
2022-10-14T15:12:21.866Z,68815.19
2022-10-14T15:14:53.418Z,68798.50
2022-10-14T15:17:27.125Z,68783.31
2022-10-14T15:19:57.867Z,68793.91
2022-10-14T15:22:47.367Z,68781.03
2022-10-14T15:25:17.668Z,68757.44
2022-10-14T15:27:51.708Z,68782.38
2022-10-14T15:30:50.501Z,68773.63
2022-10-14T15:33:26.314Z,68774.03
2022-10-14T15:36:03.514Z,68742.69
2022-10-14T15:40:59.265Z,68772.50
2022-10-14T15:43:27.575Z,68759.03
2022-10-14T15:46:18.398Z,68756.00
2022-10-14T15:48:50.043Z,68758.69
2022-10-14T15:51:20.292Z,68753.38
2022-10-14T15:53:48.945Z,68743.50
2022-10-14T15:56:21.139Z,68731.75
2022-10-14T15:58:49.451Z,68734.63
2022-10-14T16:01:20.735Z,68740.47
2022-10-14T16:03:55.483Z,68737.44
2022-10-14T16:06:24.450Z,68739.34
2022-10-14T16:08:52.363Z,68728.53
2022-10-14T16:11:22.254Z,68720.03
2022-10-14T16:13:49.567Z,68722.69
2022-10-14T16:16:24.116Z,68709.41
2022-10-14T16:18:51.823Z,68716.81
2022-10-14T16:21:19.235Z,68723.44
2022-10-14T16:23:46.447Z,68720.78
2022-10-14T16:26:14.507Z,68720.59
2022-10-14T16:28:41.830Z,68692.09
2022-10-14T16:31:14.327Z,68717.75
2022-10-14T16:33:44.807Z,68724.56
2022-10-14T16:36:15.037Z,68734.22
2022-10-14T16:38:42.336Z,68736.09
2022-10-14T16:41:11.398Z,68733.84
2022-10-14T16:43:39.110Z,68721.16
2022-10-14T16:46:10.366Z,68708.09
2022-10-14T16:48:40.818Z,68703.53
2022-10-14T16:51:08.552Z,68701.81
2022-10-14T16:53:42.098Z,68700.69
2022-10-14T16:56:32.788Z,68691.22
2022-10-14T16:59:01.060Z,68693.88
2022-10-14T17:01:29.503Z,68699.94
2022-10-14T17:03:57.635Z,68699.75
2022-10-14T17:06:26.057Z,68696.34
2022-10-14T17:08:53.596Z,68688.38
2022-10-14T17:11:21.917Z,68692.34
2022-10-14T17:13:53.499Z,68681.94
2022-10-14T17:16:21.597Z,68681.19
2022-10-14T17:21:21.861Z,68657.13
2022-10-14T17:23:49.405Z,68650.69
2022-10-14T17:26:18.604Z,68618.25
2022-10-14T17:28:47.273Z,68626.44
2022-10-14T17:31:20.589Z,68623.03
2022-10-14T17:33:47.775Z,68613.38
2022-10-14T17:36:24.354Z,68608.44
2022-10-14T17:38:52.327Z,68606.56
2022-10-14T17:41:20.059Z,68606.94
2022-10-14T17:43:49.625Z,68610.72
2022-10-14T17:46:20.880Z,68602.78
2022-10-14T17:48:53.392Z,68602.94
2022-10-14T17:51:25.506Z,68596.16
2022-10-14T17:53:58.459Z,68599.38
2022-10-14T17:56:27.423Z,68594.44
2022-10-14T17:58:57.030Z,68591.97
2022-10-14T18:01:37.146Z,68589.53
2022-10-14T18:04:05.069Z,68586.66
2022-10-14T18:06:37.346Z,68588.19
2022-10-14T18:09:09.776Z,68576.66
2022-10-14T18:12:07.170Z,68588.00
2022-10-14T18:14:28.722Z,68584.63
2022-10-14T18:16:56.300Z,68577.41
2022-10-14T18:19:23.578Z,68580.63
2022-10-14T18:21:51.680Z,68565.69
2022-10-14T18:24:19.956Z,68569.47
2022-10-14T18:26:50.099Z,68562.66
2022-10-14T18:29:17.601Z,68557.91
2022-10-14T18:31:44.904Z,68560.75
2022-10-14T18:34:12.281Z,68551.84
2022-10-14T18:36:39.574Z,68558.50
2022-10-14T18:39:10.162Z,68563.41
2022-10-14T18:41:37.847Z,68543.75
2022-10-14T18:44:06.496Z,68546.19
2022-10-14T18:46:37.269Z,68547.31
2022-10-14T18:49:06.399Z,68546.75
2022-10-14T18:51:36.752Z,68545.78
2022-10-14T18:54:12.400Z,68539.38
2022-10-14T18:56:39.837Z,68545.44
2022-10-14T18:59:10.031Z,68538.25
2022-10-14T19:01:39.405Z,68530.47
2022-10-14T19:04:09.581Z,68523.84
2022-10-14T19:06:37.055Z,68524.44
2022-10-14T19:09:05.357Z,68524.63
2022-10-14T19:11:34.760Z,68515.72
2022-10-14T19:14:04.590Z,68521.59
2022-10-14T19:16:34.085Z,68519.13
2022-10-14T19:19:08.031Z,68513.47
2022-10-14T19:21:35.416Z,68513.47
2022-10-14T19:24:03.676Z,68511.16
2022-10-14T19:26:34.362Z,68508.91
2022-10-14T19:29:06.376Z,68521.22
2022-10-14T19:31:37.678Z,68519.69
2022-10-14T19:34:07.838Z,68522.53
2022-10-14T19:36:37.458Z,68528.78
2022-10-14T19:39:07.377Z,68536.72
2022-10-14T19:41:40.244Z,68532.38
2022-10-14T19:44:07.610Z,68528.59
2022-10-14T19:46:34.921Z,68528.97
2022-10-14T19:49:03.444Z,68514.03
2022-10-14T19:51:32.249Z,68518.75
2022-10-14T19:54:00.591Z,68521.78
2022-10-14T19:56:30.225Z,68514.41
2022-10-14T19:58:59.744Z,68519.31
2022-10-14T20:01:30.517Z,68517.81
2022-10-14T20:04:01.492Z,68509.09
2022-10-14T20:06:35.634Z,68516.28
2022-10-14T20:09:08.773Z,68521.97
2022-10-14T20:11:37.385Z,68515.91
2022-10-14T20:14:05.361Z,68524.44
2022-10-14T20:16:37.006Z,68528.78
2022-10-14T20:19:06.471Z,68526.13
2022-10-14T20:21:34.043Z,68531.63
2022-10-14T20:24:01.344Z,68533.88
2022-10-14T20:26:28.760Z,68531.44
2022-10-14T20:28:56.147Z,68526.88
2022-10-14T20:31:25.521Z,68533.13
2022-10-14T20:33:55.348Z,68537.28
2022-10-14T20:36:22.879Z,68535.78
2022-10-14T20:38:50.609Z,68538.81
2022-10-14T20:41:23.624Z,68536.72
2022-10-14T20:43:52.195Z,68533.69
2022-10-14T20:46:20.230Z,68551.47
2022-10-14T20:48:48.350Z,68553.00
2022-10-14T20:51:17.672Z,68545.44
2022-10-14T20:53:45.311Z,68553.00
2022-10-14T20:56:13.383Z,68546.75
2022-10-14T20:58:40.965Z,68556.78
2022-10-14T21:01:17.226Z,68557.38
2022-10-14T21:03:46.121Z,68550.75
2022-10-14T21:06:18.998Z,68546.19
2022-10-14T21:08:47.332Z,68545.06
2022-10-14T21:11:17.185Z,68549.41
2022-10-14T21:13:50.504Z,68545.44
2022-10-14T21:16:22.349Z,68556.59
2022-10-14T21:18:55.351Z,68556.41
2022-10-14T21:21:27.325Z,68541.25
2022-10-14T21:23:55.843Z,68546.19
2022-10-14T21:26:23.831Z,68545.78
2022-10-14T21:28:51.304Z,68546.75
2022-10-14T21:31:20.174Z,68554.13
2022-10-14T21:33:53.634Z,68553.00
2022-10-14T21:36:20.855Z,68554.31
2022-10-14T21:38:48.351Z,68565.50
2022-10-14T21:41:15.859Z,68562.84
2022-10-14T21:43:43.172Z,68558.84
2022-10-14T21:46:15.606Z,68563.41
2022-10-14T21:48:44.598Z,68580.81
2022-10-14T21:51:18.176Z,68554.09
2022-10-14T21:53:46.284Z,68571.72
2022-10-14T21:56:14.984Z,68571.16
2022-10-14T21:58:42.939Z,68576.28
2022-10-14T22:01:11.810Z,68579.13
2022-10-14T22:03:40.821Z,68574.56
2022-10-14T22:06:12.045Z,68573.03
2022-10-14T22:08:50.414Z,68567.19
2022-10-14T22:11:22.852Z,68574.56
2022-10-14T22:13:51.563Z,68547.84
2022-10-14T22:16:19.576Z,68576.28
2022-10-14T22:18:50.705Z,68572.88
2022-10-14T22:21:22.320Z,68570.59
2022-10-14T22:23:50.380Z,68562.06
2022-10-14T22:26:20.457Z,68559.41
2022-10-14T22:28:48.484Z,68571.16
2022-10-14T22:31:21.085Z,68572.88
2022-10-14T22:33:48.784Z,68543.88
2022-10-14T22:36:24.185Z,68575.69
2022-10-14T22:38:53.314Z,68573.44
2022-10-14T22:41:22.078Z,68585.56
2022-10-14T22:43:55.485Z,68589.16
2022-10-14T22:46:25.818Z,68590.84
2022-10-14T22:48:56.331Z,68581.19
2022-10-14T22:53:59.888Z,68577.03
2022-10-14T22:56:29.952Z,68579.88
2022-10-14T22:59:02.748Z,68566.81
2022-10-14T23:01:30.705Z,68567.00
2022-10-14T23:03:59.025Z,68560.75
2022-10-14T23:06:27.274Z,68554.88
2022-10-14T23:08:54.998Z,68557.72
2022-10-14T23:11:31.885Z,68562.66
2022-10-14T23:14:04.409Z,68562.66
2022-10-14T23:16:35.788Z,68560.00
2022-10-14T23:19:03.551Z,68533.09
2022-10-14T23:21:32.991Z,68561.72
2022-10-14T23:24:04.127Z,68562.66
2022-10-14T23:26:35.488Z,68559.41
2022-10-14T23:29:08.935Z,68567.38
2022-10-14T23:31:38.008Z,68559.63
2022-10-14T23:34:10.060Z,68565.88
2022-10-14T23:36:37.683Z,68571.00
2022-10-14T23:39:05.151Z,68563.78
2022-10-14T23:41:32.663Z,68558.28
2022-10-14T23:44:00.329Z,68569.28
2022-10-14T23:46:27.639Z,68566.63
2022-10-14T23:49:06.681Z,68563.41
2022-10-14T23:51:35.603Z,68569.09
2022-10-14T23:54:03.212Z,68569.06
2022-10-14T23:56:30.542Z,68564.16
2022-10-14T23:58:57.871Z,68566.03
